createdAt,value
2018-07-05T00:00:49.546Z,68.39
2018-07-05T00:03:36.374Z,68.28
2018-07-05T00:06:24.830Z,67.71
2018-07-05T00:09:13.133Z,67.07
2018-07-05T00:12:01.447Z,68.49
2018-07-05T00:14:48.981Z,69.25
2018-07-05T00:17:35.696Z,70.41
2018-07-05T00:20:23.615Z,70.67
2018-07-05T00:23:10.185Z,70.23
2018-07-05T00:25:57.127Z,70.62
2018-07-05T00:28:43.820Z,69.40
2018-07-05T00:31:31.311Z,69.10
2018-07-05T00:34:18.037Z,69.71
2018-07-05T00:37:10.581Z,69.63
2018-07-05T00:39:57.922Z,69.44
2018-07-05T00:42:45.033Z,69.94
2018-07-05T00:45:36.955Z,68.77
2018-07-05T00:48:24.340Z,68.81
2018-07-05T00:51:11.454Z,70.16
2018-07-05T00:53:58.365Z,70.84
2018-07-05T00:56:46.508Z,70.89
2018-07-05T00:59:33.973Z,70.12
2018-07-05T01:02:20.269Z,71.68
2018-07-05T01:05:07.577Z,72.57
2018-07-05T01:07:57.870Z,72.39
2018-07-05T01:10:44.315Z,72.65
2018-07-05T01:13:32.257Z,71.89
2018-07-05T01:16:21.233Z,71.98
2018-07-05T01:19:09.644Z,72.28
2018-07-05T01:21:57.821Z,71.23
2018-07-05T01:24:45.113Z,71.54
2018-07-05T01:27:35.709Z,70.66
2018-07-05T01:30:22.937Z,70.86
2018-07-05T01:33:10.366Z,71.09
2018-07-05T01:36:00.760Z,71.53
2018-07-05T01:38:48.119Z,71.21
2018-07-05T01:41:34.408Z,70.56
2018-07-05T01:44:22.285Z,70.66
2018-07-05T01:47:09.239Z,70.57
2018-07-05T01:49:56.799Z,70.47
2018-07-05T01:52:44.462Z,70.67
2018-07-05T01:55:34.354Z,73.70
2018-07-05T01:58:21.094Z,72.01
2018-07-05T02:01:08.679Z,71.64
2018-07-05T02:03:55.388Z,73.01
2018-07-05T02:06:47.065Z,73.12
2018-07-05T02:09:36.897Z,72.88
2018-07-05T02:12:25.935Z,72.77
2018-07-05T02:15:15.528Z,72.86
2018-07-05T02:18:03.185Z,73.16
2018-07-05T02:20:50.341Z,72.77
2018-07-05T02:23:40.220Z,71.63
2018-07-05T02:26:28.242Z,71.46
2018-07-05T02:29:16.485Z,72.29
2018-07-05T02:32:05.484Z,71.35
2018-07-05T02:34:55.117Z,70.52
2018-07-05T02:37:47.586Z,70.63
2018-07-05T02:40:36.053Z,71.70
2018-07-05T02:43:24.145Z,71.42
2018-07-05T02:46:12.246Z,71.76
2018-07-05T02:48:58.749Z,72.29
2018-07-05T02:51:46.266Z,71.21
2018-07-05T02:54:35.941Z,71.63
2018-07-05T02:57:23.653Z,71.80
2018-07-05T03:00:11.517Z,72.35
2018-07-05T03:02:59.420Z,73.02
2018-07-05T03:05:47.436Z,73.73
2018-07-05T03:08:34.211Z,73.37
2018-07-05T03:11:22.514Z,73.00
2018-07-05T03:14:09.750Z,72.77
2018-07-05T03:16:57.627Z,72.48
2018-07-05T03:19:47.540Z,74.57
2018-07-05T03:22:35.573Z,73.75
2018-07-05T03:25:22.916Z,72.29
2018-07-05T03:28:09.698Z,72.03
2018-07-05T03:30:58.516Z,72.99
2018-07-05T03:33:45.539Z,73.36
2018-07-05T03:36:32.488Z,74.73
2018-07-05T03:39:20.025Z,74.23
2018-07-05T03:42:07.607Z,74.18
2018-07-05T03:44:56.167Z,72.83
2018-07-05T03:47:42.518Z,77.07
2018-07-05T03:50:34.319Z,76.81
2018-07-05T03:53:25.161Z,76.19
2018-07-05T03:56:12.090Z,74.94
2018-07-05T03:59:00.328Z,74.32
2018-07-05T04:01:49.252Z,75.20
2018-07-05T04:04:36.744Z,74.53
2018-07-05T04:07:26.979Z,74.31
2018-07-05T04:10:18.062Z,75.45
2018-07-05T04:13:10.198Z,75.40
2018-07-05T04:16:01.056Z,75.83
2018-07-05T04:18:49.533Z,76.11
2018-07-05T04:21:36.243Z,75.81
2018-07-05T04:24:24.233Z,76.52
2018-07-05T04:27:12.337Z,75.52
2018-07-05T04:29:59.283Z,75.10
2018-07-05T04:32:46.899Z,75.92
2018-07-05T04:35:33.565Z,75.36
2018-07-05T04:38:20.839Z,75.57
2018-07-05T04:41:12.620Z,74.89
2018-07-05T04:44:01.014Z,74.06
2018-07-05T04:46:47.680Z,74.24
2018-07-05T04:49:35.456Z,74.92
2018-07-05T04:52:24.913Z,75.12
2018-07-05T04:55:13.870Z,74.27
2018-07-05T04:58:06.691Z,75.07
2018-07-05T05:00:54.177Z,75.49
2018-07-05T05:03:41.785Z,74.58
2018-07-05T05:06:28.414Z,75.90
2018-07-05T05:09:16.229Z,76.19
2018-07-05T05:12:05.726Z,75.03
2018-07-05T05:14:54.790Z,75.12
2018-07-05T05:17:42.003Z,75.79
2018-07-05T05:20:29.123Z,75.14
2018-07-05T05:23:19.814Z,75.82
2018-07-05T05:26:09.855Z,75.93
2018-07-05T05:28:57.825Z,75.46
2018-07-05T05:31:45.864Z,75.24
2018-07-05T05:34:35.432Z,74.93
2018-07-05T05:37:22.528Z,74.60
2018-07-05T05:40:17.986Z,74.38
2018-07-05T05:43:06.897Z,74.90
2018-07-05T05:45:53.161Z,74.48
2018-07-05T05:48:40.792Z,73.66
2018-07-05T05:51:28.405Z,73.43
2018-07-05T05:54:17.180Z,74.02
2018-07-05T05:57:05.836Z,74.41
2018-07-05T05:59:54.203Z,74.38
2018-07-05T06:02:41.960Z,74.02
2018-07-05T06:05:29.266Z,73.57
2018-07-05T06:08:16.979Z,73.25
2018-07-05T06:11:09.009Z,72.56
2018-07-05T06:13:55.933Z,72.05
2018-07-05T06:16:43.067Z,71.66
2018-07-05T06:19:31.426Z,70.85
2018-07-05T06:22:19.978Z,70.11
2018-07-05T06:25:08.039Z,69.88
2018-07-05T06:27:54.806Z,69.58
2018-07-05T06:30:42.916Z,69.74
2018-07-05T06:33:30.047Z,68.79
2018-07-05T06:36:17.759Z,66.48
2018-07-05T06:39:07.498Z,66.05
2018-07-05T06:41:55.705Z,66.13
2018-07-05T06:44:42.623Z,67.61
2018-07-05T06:47:33.379Z,65.33
2018-07-05T06:50:22.099Z,66.71
2018-07-05T06:53:09.488Z,65.29
2018-07-05T06:55:56.894Z,65.39
2018-07-05T06:58:44.613Z,65.05
2018-07-05T07:01:31.646Z,64.13
2018-07-05T07:04:21.004Z,64.03
2018-07-05T07:07:09.142Z,63.86
2018-07-05T07:09:56.149Z,63.35
2018-07-05T07:12:42.711Z,63.68
2018-07-05T07:15:31.001Z,62.92
2018-07-05T07:18:18.928Z,62.45
2018-07-05T07:21:07.550Z,61.72
2018-07-05T07:23:57.866Z,61.27
2018-07-05T07:26:44.545Z,60.98
2018-07-05T07:29:31.215Z,61.68
2018-07-05T07:32:19.646Z,60.70
2018-07-05T07:35:12.014Z,59.98
2018-07-05T07:37:59.096Z,59.25
2018-07-05T07:40:45.426Z,57.97
2018-07-05T07:43:21.146Z,57.41
2018-07-05T07:45:55.403Z,56.57
2018-07-05T07:48:24.505Z,56.80
2018-07-05T07:50:53.917Z,56.05
2018-07-05T07:53:29.018Z,55.88
2018-07-05T07:55:57.413Z,56.07
2018-07-05T07:58:26.356Z,55.48
2018-07-05T08:00:55.997Z,56.27
2018-07-05T08:03:23.975Z,56.12
2018-07-05T08:05:54.496Z,55.29
2018-07-05T08:08:23.027Z,54.86
2018-07-05T08:10:51.585Z,55.96
2018-07-05T08:13:21.089Z,54.59
2018-07-05T08:15:49.922Z,53.96
2018-07-05T08:18:19.295Z,53.75
2018-07-05T08:20:47.561Z,52.95
2018-07-05T08:23:15.941Z,55.09
2018-07-05T08:25:44.246Z,54.71
2018-07-05T08:28:12.819Z,52.98
2018-07-05T08:30:42.141Z,51.74
2018-07-05T08:33:10.424Z,52.12
2018-07-05T08:35:39.092Z,53.92
2018-07-05T08:38:07.663Z,54.00
2018-07-05T08:40:38.572Z,54.23
2018-07-05T08:43:07.299Z,53.09
2018-07-05T08:45:35.950Z,52.73
2018-07-05T08:48:03.796Z,51.81
2018-07-05T08:50:32.054Z,51.60
2018-07-05T08:53:01.523Z,51.76
2018-07-05T08:55:30.777Z,52.07
2018-07-05T08:57:59.760Z,51.40
2018-07-05T09:00:29.479Z,51.17
2018-07-05T09:02:57.825Z,50.52
2018-07-05T09:05:27.139Z,50.56
2018-07-05T09:07:56.049Z,49.41
2018-07-05T09:10:26.025Z,49.27
2018-07-05T09:12:54.305Z,50.59
2018-07-05T09:15:26.427Z,49.16
2018-07-05T09:17:54.681Z,49.07
2018-07-05T09:20:22.980Z,47.51
2018-07-05T09:22:53.929Z,48.54
2018-07-05T09:25:21.995Z,48.68
2018-07-05T09:27:51.884Z,50.00
2018-07-05T09:30:21.160Z,48.86
2018-07-05T09:32:50.103Z,47.81
2018-07-05T09:35:18.428Z,47.45
2018-07-05T09:37:47.154Z,47.08
2018-07-05T09:40:15.525Z,47.43
2018-07-05T09:42:44.487Z,46.31
2018-07-05T09:45:12.354Z,47.36
2018-07-05T09:47:40.813Z,47.64
2018-07-05T09:50:09.491Z,46.11
2018-07-05T09:52:38.840Z,45.93
2018-07-05T09:55:09.115Z,46.22
2018-07-05T09:57:38.891Z,47.13
2018-07-05T10:00:11.989Z,45.74
2018-07-05T10:02:41.507Z,46.84
2018-07-05T10:05:10.175Z,46.35
2018-07-05T10:07:38.998Z,45.79
2018-07-05T10:10:08.258Z,46.25
2018-07-05T10:12:44.569Z,45.82
2018-07-05T10:15:12.394Z,45.00
2018-07-05T10:17:41.387Z,45.68
2018-07-05T10:20:09.560Z,44.50
2018-07-05T10:22:38.342Z,42.82
2018-07-05T10:25:07.875Z,42.42
2018-07-05T10:27:36.700Z,43.88
2018-07-05T10:30:17.226Z,44.02
2018-07-05T10:33:03.692Z,43.47
2018-07-05T10:35:40.770Z,42.45
2018-07-05T10:38:09.584Z,42.12
2018-07-05T10:40:49.642Z,42.24
2018-07-05T10:43:36.626Z,42.18
2018-07-05T10:46:23.436Z,42.00
2018-07-05T10:49:10.160Z,40.07
2018-07-05T10:51:56.696Z,40.17
2018-07-05T10:54:48.041Z,39.05
2018-07-05T10:57:36.542Z,37.98
2018-07-05T11:00:23.279Z,38.32
2018-07-05T11:03:10.984Z,38.05
2018-07-05T11:05:58.052Z,37.25
2018-07-05T11:08:45.612Z,40.04
2018-07-05T11:11:33.016Z,40.29
2018-07-05T11:14:21.500Z,39.66
2018-07-05T11:17:08.511Z,38.95
2018-07-05T11:19:57.344Z,41.63
2018-07-05T11:22:44.324Z,41.41
2018-07-05T11:25:36.155Z,42.10
2018-07-05T11:28:24.483Z,41.94
2018-07-05T11:31:13.348Z,42.20
2018-07-05T11:34:00.749Z,42.98
2018-07-05T11:36:51.497Z,43.06
2018-07-05T11:39:38.164Z,43.98
2018-07-05T11:42:25.462Z,45.00
2018-07-05T11:45:14.697Z,47.29
2018-07-05T11:48:02.896Z,49.69
2018-07-05T11:50:50.148Z,53.10
2018-07-05T11:53:37.076Z,54.18
2018-07-05T11:56:25.432Z,53.46
2018-07-05T11:59:13.200Z,54.78
2018-07-05T12:02:01.040Z,56.19
2018-07-05T12:04:50.246Z,57.58
2018-07-05T12:07:38.640Z,54.63
2018-07-05T12:10:27.591Z,53.26
2018-07-05T12:13:14.574Z,52.20
2018-07-05T12:16:01.364Z,53.55
2018-07-05T12:18:48.838Z,55.66
2018-07-05T12:21:36.757Z,58.43
2018-07-05T12:24:23.463Z,57.40
2018-07-05T12:27:10.984Z,58.06
2018-07-05T12:29:59.209Z,63.12
2018-07-05T12:32:46.829Z,63.77
2018-07-05T12:35:34.341Z,62.47
2018-07-05T12:38:21.666Z,62.39
2018-07-05T12:41:12.252Z,62.52
2018-07-05T12:43:58.544Z,60.94
2018-07-05T12:46:45.495Z,61.43
2018-07-05T12:49:32.128Z,63.13
2018-07-05T12:52:19.324Z,63.11
2018-07-05T12:55:05.948Z,66.92
2018-07-05T12:57:54.048Z,62.14
2018-07-05T13:00:42.517Z,62.23
2018-07-05T13:03:30.516Z,64.57
2018-07-05T13:06:17.614Z,64.46
2018-07-05T13:09:05.613Z,65.10
2018-07-05T13:11:53.780Z,64.20
2018-07-05T13:14:41.754Z,63.74
2018-07-05T13:17:28.692Z,60.90
2018-07-05T13:20:16.838Z,56.15
2018-07-05T13:23:04.327Z,55.31
2018-07-05T13:25:51.716Z,54.77
2018-07-05T13:28:38.964Z,54.59
2018-07-05T13:31:27.293Z,55.90
2018-07-05T13:34:14.002Z,55.91
2018-07-05T13:37:01.105Z,57.54
2018-07-05T13:39:48.620Z,57.51
2018-07-05T13:42:35.742Z,57.93
2018-07-05T13:45:23.165Z,59.38
2018-07-05T13:48:10.392Z,58.12
2018-07-05T13:50:57.203Z,57.49
2018-07-05T13:53:48.296Z,56.68
2018-07-05T13:56:35.927Z,58.02
2018-07-05T13:59:23.330Z,57.83
2018-07-05T14:02:09.987Z,59.83
2018-07-05T14:05:00.501Z,63.59
2018-07-05T14:07:47.031Z,64.99
2018-07-05T14:10:34.092Z,66.10
2018-07-05T14:13:20.770Z,67.98
2018-07-05T14:16:10.492Z,69.05
2018-07-05T14:18:57.966Z,69.58
2018-07-05T14:21:44.892Z,71.09
2018-07-05T14:24:32.323Z,70.85
2018-07-05T14:27:19.013Z,71.11
2018-07-05T14:30:06.785Z,71.99
2018-07-05T14:32:54.219Z,71.89
2018-07-05T14:35:41.904Z,69.48
2018-07-05T14:38:29.181Z,70.71
2018-07-05T14:41:17.750Z,73.55
2018-07-05T14:44:05.085Z,75.52
2018-07-05T14:46:52.004Z,76.64
2018-07-05T14:49:38.794Z,75.63
2018-07-05T14:52:25.515Z,75.85
2018-07-05T14:55:12.976Z,76.15
2018-07-05T14:58:00.387Z,75.48
2018-07-05T15:00:47.094Z,77.88
2018-07-05T15:03:34.064Z,77.56
2018-07-05T15:06:21.012Z,77.20
2018-07-05T15:09:09.218Z,77.93
2018-07-05T15:11:56.713Z,77.78
2018-07-05T15:14:47.009Z,78.40
2018-07-05T15:17:33.602Z,77.62
2018-07-05T15:20:20.111Z,78.75
2018-07-05T15:23:06.664Z,79.01
2018-07-05T15:25:54.228Z,79.07
2018-07-05T15:28:40.622Z,79.25
2018-07-05T15:31:27.474Z,78.74
2018-07-05T15:34:14.877Z,77.74
2018-07-05T15:37:01.245Z,78.15
2018-07-05T15:39:48.548Z,79.24
2018-07-05T15:42:35.783Z,79.01
2018-07-05T15:45:22.401Z,77.18
2018-07-05T15:48:09.050Z,75.87
2018-07-05T15:50:56.058Z,74.07
2018-07-05T15:53:43.367Z,75.71
2018-07-05T15:56:30.044Z,74.34
2018-07-05T15:59:16.750Z,73.10
2018-07-05T16:02:04.291Z,71.17
2018-07-05T16:04:51.970Z,70.95
2018-07-05T16:07:38.649Z,70.75
2018-07-05T16:10:25.988Z,72.15
2018-07-05T16:13:12.332Z,73.22
2018-07-05T16:16:00.993Z,70.83
2018-07-05T16:18:47.826Z,72.45
2018-07-05T16:21:35.882Z,72.50
2018-07-05T16:24:22.932Z,73.20
2018-07-05T16:27:11.450Z,72.23
2018-07-05T16:29:58.701Z,72.02
2018-07-05T16:32:46.521Z,72.25
2018-07-05T16:35:32.922Z,71.67
2018-07-05T16:38:19.428Z,70.90
2018-07-05T16:41:05.967Z,72.24
2018-07-05T16:43:53.731Z,71.95
2018-07-05T16:46:41.059Z,72.53
2018-07-05T16:49:28.455Z,71.47
2018-07-05T16:52:14.721Z,72.93
2018-07-05T16:55:01.816Z,71.84
2018-07-05T16:57:48.476Z,71.17
2018-07-05T17:00:35.690Z,71.22
2018-07-05T17:03:23.986Z,69.84
2018-07-05T17:06:11.854Z,71.00
2018-07-05T17:08:58.599Z,72.43
2018-07-05T17:11:45.673Z,71.12
2018-07-05T17:14:34.373Z,71.47
2018-07-05T17:17:22.972Z,70.20
2018-07-05T17:20:11.627Z,71.49
2018-07-05T17:22:59.129Z,74.01
2018-07-05T17:25:45.776Z,75.37
2018-07-05T17:28:33.094Z,75.02
2018-07-05T17:31:20.290Z,74.05
2018-07-05T17:34:08.224Z,73.91
2018-07-05T17:36:55.503Z,73.55
2018-07-05T17:39:42.813Z,73.31
2018-07-05T17:42:29.300Z,73.42
2018-07-05T17:45:16.376Z,73.48
2018-07-05T17:48:03.170Z,73.31
2018-07-05T17:50:50.355Z,71.92
2018-07-05T17:53:37.534Z,71.86
2018-07-05T17:56:24.300Z,71.46
2018-07-05T17:59:11.162Z,71.66
2018-07-05T18:01:57.596Z,71.80
2018-07-05T18:04:44.479Z,70.98
2018-07-05T18:07:33.205Z,70.81
2018-07-05T18:10:21.857Z,71.77
2018-07-05T18:13:09.409Z,71.62
2018-07-05T18:15:56.363Z,70.98
2018-07-05T18:18:42.851Z,70.54
2018-07-05T18:21:30.504Z,71.27
2018-07-05T18:24:18.294Z,71.17
2018-07-05T18:27:06.503Z,69.44
2018-07-05T18:29:53.250Z,70.26
2018-07-05T18:32:40.443Z,70.85
2018-07-05T18:35:27.399Z,72.01
2018-07-05T18:38:14.574Z,75.05
2018-07-05T18:41:01.542Z,75.68
2018-07-05T18:43:50.966Z,74.94
2018-07-05T18:46:39.549Z,73.70
2018-07-05T18:49:27.885Z,72.87
2018-07-05T18:52:14.298Z,72.13
2018-07-05T18:55:01.668Z,74.32
2018-07-05T18:57:48.295Z,75.76
2018-07-05T19:00:39.176Z,75.21
2018-07-05T19:03:30.502Z,73.81
2018-07-05T19:06:20.839Z,74.98
2018-07-05T19:09:09.104Z,75.66
2018-07-05T19:12:01.942Z,75.68
2018-07-05T19:14:55.669Z,74.96
2018-07-05T19:17:49.773Z,73.93
2018-07-05T19:20:40.493Z,73.75
2018-07-05T19:23:29.310Z,74.41
2018-07-05T19:26:18.222Z,74.76
2018-07-05T19:29:05.430Z,74.76
2018-07-05T19:31:52.473Z,74.78
2018-07-05T19:34:42.304Z,75.31
2018-07-05T19:37:32.679Z,76.09
2018-07-05T19:40:23.162Z,76.50
2018-07-05T19:43:09.563Z,75.49
2018-07-05T19:45:56.506Z,74.79
2018-07-05T19:48:48.212Z,75.08
2018-07-05T19:51:35.480Z,74.23
2018-07-05T19:54:22.007Z,75.18
2018-07-05T19:57:09.167Z,75.66
2018-07-05T19:59:59.006Z,76.11
2018-07-05T20:02:46.544Z,75.98
2018-07-05T20:05:32.940Z,76.23
2018-07-05T20:08:19.556Z,76.63
2018-07-05T20:11:07.354Z,76.75
2018-07-05T20:13:54.685Z,76.23
2018-07-05T20:16:41.999Z,76.25
2018-07-05T20:19:32.603Z,77.02
2018-07-05T20:22:20.128Z,77.01
2018-07-05T20:25:07.282Z,76.33
2018-07-05T20:27:53.667Z,76.40
2018-07-05T20:30:42.623Z,75.38
2018-07-05T20:33:29.785Z,75.44
2018-07-05T20:36:18.983Z,75.17
2018-07-05T20:39:06.463Z,75.76
2018-07-05T20:41:54.534Z,76.16
2018-07-05T20:44:41.991Z,75.69
2018-07-05T20:47:28.843Z,75.60
2018-07-05T20:50:15.233Z,75.40
2018-07-05T20:53:02.723Z,75.01
2018-07-05T20:55:50.636Z,74.92
2018-07-05T20:58:41.590Z,75.51
2018-07-05T21:01:28.453Z,75.16
2018-07-05T21:04:15.568Z,75.64
2018-07-05T21:07:02.264Z,76.81
2018-07-05T21:09:49.209Z,76.98
2018-07-05T21:12:37.887Z,76.79
2018-07-05T21:15:26.502Z,77.25
2018-07-05T21:18:16.166Z,77.08
2018-07-05T21:21:03.508Z,77.29
2018-07-05T21:23:50.910Z,76.55
2018-07-05T21:26:39.376Z,76.46
2018-07-05T21:29:32.081Z,76.46
2018-07-05T21:32:18.922Z,76.33
2018-07-05T21:35:06.719Z,76.86
2018-07-05T21:37:54.614Z,76.66
2018-07-05T21:40:41.590Z,77.28
2018-07-05T21:43:34.141Z,77.95
2018-07-05T21:46:22.175Z,78.68
2018-07-05T21:49:09.888Z,78.68
2018-07-05T21:51:56.687Z,78.18
2018-07-05T21:54:43.257Z,77.96
2018-07-05T21:57:30.622Z,77.00
2018-07-05T22:00:18.739Z,76.78
2018-07-05T22:03:05.354Z,77.40
2018-07-05T22:05:52.315Z,76.91
2018-07-05T22:08:39.077Z,77.73
2018-07-05T22:11:26.400Z,77.78
2018-07-05T22:14:14.129Z,77.69
2018-07-05T22:17:08.135Z,77.96
2018-07-05T22:20:01.102Z,77.79
2018-07-05T22:22:54.227Z,77.61
2018-07-05T22:25:47.052Z,77.75
2018-07-05T22:28:41.037Z,78.47
2018-07-05T22:31:31.459Z,78.28
2018-07-05T22:34:18.660Z,78.50
2018-07-05T22:37:06.910Z,78.41
2018-07-05T22:39:55.629Z,77.99
2018-07-05T22:42:42.396Z,78.09
2018-07-05T22:45:30.612Z,78.43
2018-07-05T22:48:18.414Z,78.29
2018-07-05T22:51:05.912Z,79.05
2018-07-05T22:53:53.470Z,79.55
2018-07-05T22:56:41.740Z,79.20
2018-07-05T22:59:28.572Z,79.76
2018-07-05T23:02:15.560Z,80.02
2018-07-05T23:05:02.401Z,80.14
2018-07-05T23:07:49.701Z,80.24
2018-07-05T23:10:36.890Z,80.53
2018-07-05T23:13:24.937Z,80.73
2018-07-05T23:16:12.264Z,81.32
2018-07-05T23:18:59.408Z,81.24
2018-07-05T23:21:46.429Z,80.90
2018-07-05T23:24:32.927Z,81.25
2018-07-05T23:27:20.053Z,80.86
2018-07-05T23:30:07.152Z,80.44
2018-07-05T23:32:55.079Z,80.23
2018-07-05T23:35:41.916Z,80.04
2018-07-05T23:38:28.620Z,80.61
2018-07-05T23:41:16.439Z,79.65
2018-07-05T23:44:05.413Z,79.50
2018-07-05T23:46:52.773Z,79.08
2018-07-05T23:49:39.741Z,79.36
2018-07-05T23:52:27.272Z,79.02
2018-07-05T23:55:15.734Z,79.90
2018-07-05T23:58:02.629Z,80.99
